sensor_id;sensor_type;location;lat;lon;timestamp;P1;durP1;ratioP1;P2;durP2;ratioP2
6101;SDS011;3081;50.584;7.032;2022-12-01T00:01:01;34.23;;;15.17;;
6101;SDS011;3081;50.584;7.032;2022-12-01T00:03:30;36.93;;;15.60;;
6101;SDS011;3081;50.584;7.032;2022-12-01T00:05:58;29.80;;;13.67;;
6101;SDS011;3081;50.584;7.032;2022-12-01T00:08:25;29.53;;;13.17;;
6101;SDS011;3081;50.584;7.032;2022-12-01T00:10:53;29.80;;;15.00;;
6101;SDS011;3081;50.584;7.032;2022-12-01T00:13:19;25.90;;;12.77;;
6101;SDS011;3081;50.584;7.032;2022-12-01T00:15:46;28.20;;;13.20;;
6101;SDS011;3081;50.584;7.032;2022-12-01T00:18:13;25.90;;;12.00;;
6101;SDS011;3081;50.584;7.032;2022-12-01T00:20:41;27.53;;;13.97;;
6101;SDS011;3081;50.584;7.032;2022-12-01T00:23:08;34.87;;;15.03;;
6101;SDS011;3081;50.584;7.032;2022-12-01T00:25:35;30.73;;;14.13;;
6101;SDS011;3081;50.584;7.032;2022-12-01T00:28:02;32.10;;;15.00;;
6101;SDS011;3081;50.584;7.032;2022-12-01T00:30:29;36.33;;;16.50;;
6101;SDS011;3081;50.584;7.032;2022-12-01T00:32:56;34.83;;;16.07;;
6101;SDS011;3081;50.584;7.032;2022-12-01T00:35:23;29.23;;;14.77;;
6101;SDS011;3081;50.584;7.032;2022-12-01T00:40:42;32.37;;;14.40;;
6101;SDS011;3081;50.584;7.032;2022-12-01T00:43:09;28.97;;;14.00;;
6101;SDS011;3081;50.584;7.032;2022-12-01T00:45:36;24.13;;;12.60;;
6101;SDS011;3081;50.584;7.032;2022-12-01T00:48:03;24.43;;;13.20;;
6101;SDS011;3081;50.584;7.032;2022-12-01T00:50:30;30.80;;;13.70;;
6101;SDS011;3081;50.584;7.032;2022-12-01T00:52:57;31.90;;;14.23;;
6101;SDS011;3081;50.584;7.032;2022-12-01T00:55:25;27.77;;;13.30;;
6101;SDS011;3081;50.584;7.032;2022-12-01T00:57:52;29.03;;;13.40;;
6101;SDS011;3081;50.584;7.032;2022-12-01T01:00:19;22.93;;;12.70;;
6101;SDS011;3081;50.584;7.032;2022-12-01T01:02:46;26.73;;;12.43;;
6101;SDS011;3081;50.584;7.032;2022-12-01T01:05:13;24.20;;;12.57;;
6101;SDS011;3081;50.584;7.032;2022-12-01T01:07:40;24.70;;;12.67;;
6101;SDS011;3081;50.584;7.032;2022-12-01T01:10:07;27.37;;;12.93;;
6101;SDS011;3081;50.584;7.032;2022-12-01T01:12:36;25.13;;;13.53;;
6101;SDS011;3081;50.584;7.032;2022-12-01T01:15:03;25.03;;;13.60;;
6101;SDS011;3081;50.584;7.032;2022-12-01T01:17:31;26.63;;;13.50;;
6101;SDS011;3081;50.584;7.032;2022-12-01T01:19:58;30.67;;;13.40;;
6101;SDS011;3081;50.584;7.032;2022-12-01T01:22:25;26.67;;;12.43;;
6101;SDS011;3081;50.584;7.032;2022-12-01T01:24:52;24.43;;;12.53;;
6101;SDS011;3081;50.584;7.032;2022-12-01T01:27:19;26.50;;;12.30;;
6101;SDS011;3081;50.584;7.032;2022-12-01T01:29:47;25.60;;;12.40;;
6101;SDS011;3081;50.584;7.032;2022-12-01T01:32:14;22.87;;;12.40;;
6101;SDS011;3081;50.584;7.032;2022-12-01T01:34:41;24.63;;;11.37;;
6101;SDS011;3081;50.584;7.032;2022-12-01T01:37:08;25.93;;;12.20;;
6101;SDS011;3081;50.584;7.032;2022-12-01T01:39:34;24.00;;;11.20;;
6101;SDS011;3081;50.584;7.032;2022-12-01T01:42:01;25.10;;;12.00;;
6101;SDS011;3081;50.584;7.032;2022-12-01T01:44:49;21.87;;;12.33;;
6101;SDS011;3081;50.584;7.032;2022-12-01T01:47:19;27.20;;;13.10;;
6101;SDS011;3081;50.584;7.032;2022-12-01T01:49:50;27.33;;;12.50;;
6101;SDS011;3081;50.584;7.032;2022-12-01T01:52:18;25.73;;;12.70;;
6101;SDS011;3081;50.584;7.032;2022-12-01T01:54:47;25.27;;;11.70;;
6101;SDS011;3081;50.584;7.032;2022-12-01T01:57:18;25.77;;;12.57;;
6101;SDS011;3081;50.584;7.032;2022-12-01T01:59:50;26.50;;;12.53;;
6101;SDS011;3081;50.584;7.032;2022-12-01T02:02:21;31.23;;;14.83;;
6101;SDS011;3081;50.584;7.032;2022-12-01T02:04:50;24.27;;;13.47;;
6101;SDS011;3081;50.584;7.032;2022-12-01T02:07:20;27.60;;;13.10;;
6101;SDS011;3081;50.584;7.032;2022-12-01T02:09:47;23.67;;;11.43;;
6101;SDS011;3081;50.584;7.032;2022-12-01T02:12:18;26.30;;;12.70;;
6101;SDS011;3081;50.584;7.032;2022-12-01T02:15:04;21.83;;;11.70;;
6101;SDS011;3081;50.584;7.032;2022-12-01T02:17:41;22.30;;;12.07;;
6101;SDS011;3081;50.584;7.032;2022-12-01T02:26:47;24.90;;;11.93;;
6101;SDS011;3081;50.584;7.032;2022-12-01T02:32:38;21.70;;;11.40;;
6101;SDS011;3081;50.584;7.032;2022-12-01T02:35:12;22.70;;;12.37;;
6101;SDS011;3081;50.584;7.032;2022-12-01T02:37:46;24.87;;;11.77;;
6101;SDS011;3081;50.584;7.032;2022-12-01T02:40:17;25.57;;;13.17;;
6101;SDS011;3081;50.584;7.032;2022-12-01T02:42:50;26.83;;;12.50;;
6101;SDS011;3081;50.584;7.032;2022-12-01T02:45:27;21.47;;;10.83;;
6101;SDS011;3081;50.584;7.032;2022-12-01T02:48:03;21.93;;;12.83;;
6101;SDS011;3081;50.584;7.032;2022-12-01T02:50:35;25.13;;;12.37;;
6101;SDS011;3081;50.584;7.032;2022-12-01T02:53:04;25.03;;;12.33;;
6101;SDS011;3081;50.584;7.032;2022-12-01T02:55:33;23.97;;;11.87;;
6101;SDS011;3081;50.584;7.032;2022-12-01T02:58:00;23.43;;;12.33;;
6101;SDS011;3081;50.584;7.032;2022-12-01T03:00:28;23.93;;;12.10;;
6101;SDS011;3081;50.584;7.032;2022-12-01T03:03:04;22.90;;;10.60;;
6101;SDS011;3081;50.584;7.032;2022-12-01T03:05:47;24.60;;;11.93;;
6101;SDS011;3081;50.584;7.032;2022-12-01T03:08:25;25.13;;;10.93;;
6101;SDS011;3081;50.584;7.032;2022-12-01T03:10:57;24.50;;;11.90;;
6101;SDS011;3081;50.584;7.032;2022-12-01T03:13:29;25.00;;;13.00;;
6101;SDS011;3081;50.584;7.032;2022-12-01T03:16:05;25.70;;;12.33;;
6101;SDS011;3081;50.584;7.032;2022-12-01T03:18:38;28.37;;;12.80;;
6101;SDS011;3081;50.584;7.032;2022-12-01T03:21:11;23.03;;;11.97;;
6101;SDS011;3081;50.584;7.032;2022-12-01T03:23:46;23.77;;;11.30;;
6101;SDS011;3081;50.584;7.032;2022-12-01T03:26:16;23.60;;;12.47;;
6101;SDS011;3081;50.584;7.032;2022-12-01T03:28:45;26.20;;;12.97;;
6101;SDS011;3081;50.584;7.032;2022-12-01T03:31:18;30.07;;;13.20;;
6101;SDS011;3081;50.584;7.032;2022-12-01T03:33:52;24.50;;;11.77;;
6101;SDS011;3081;50.584;7.032;2022-12-01T03:36:24;24.17;;;11.50;;
6101;SDS011;3081;50.584;7.032;2022-12-01T03:38:56;23.50;;;11.90;;
6101;SDS011;3081;50.584;7.032;2022-12-01T03:41:29;20.27;;;9.90;;
6101;SDS011;3081;50.584;7.032;2022-12-01T03:44:04;23.90;;;12.70;;
6101;SDS011;3081;50.584;7.032;2022-12-01T03:46:38;29.73;;;11.90;;
6101;SDS011;3081;50.584;7.032;2022-12-01T03:49:12;28.70;;;13.60;;
6101;SDS011;3081;50.584;7.032;2022-12-01T03:51:42;20.73;;;11.00;;
6101;SDS011;3081;50.584;7.032;2022-12-01T03:54:20;37.17;;;12.70;;
6101;SDS011;3081;50.584;7.032;2022-12-01T03:56:54;30.60;;;13.90;;
6101;SDS011;3081;50.584;7.032;2022-12-01T03:59:22;23.40;;;12.27;;
6101;SDS011;3081;50.584;7.032;2022-12-01T04:01:51;30.20;;;13.57;;
6101;SDS011;3081;50.584;7.032;2022-12-01T04:04:20;24.30;;;11.50;;
6101;SDS011;3081;50.584;7.032;2022-12-01T04:06:47;28.50;;;13.57;;
6101;SDS011;3081;50.584;7.032;2022-12-01T04:09:15;28.97;;;12.97;;
6101;SDS011;3081;50.584;7.032;2022-12-01T04:11:42;26.63;;;11.33;;
6101;SDS011;3081;50.584;7.032;2022-12-01T04:14:27;28.77;;;14.30;;
6101;SDS011;3081;50.584;7.032;2022-12-01T04:16:54;41.60;;;15.50;;
6101;SDS011;3081;50.584;7.032;2022-12-01T04:19:22;33.37;;;13.77;;
6101;SDS011;3081;50.584;7.032;2022-12-01T04:21:49;32.60;;;15.10;;
6101;SDS011;3081;50.584;7.032;2022-12-01T04:24:19;29.40;;;13.17;;
6101;SDS011;3081;50.584;7.032;2022-12-01T04:26:46;26.80;;;13.93;;
6101;SDS011;3081;50.584;7.032;2022-12-01T04:29:13;31.43;;;14.03;;
6101;SDS011;3081;50.584;7.032;2022-12-01T04:31:40;24.90;;;12.00;;
6101;SDS011;3081;50.584;7.032;2022-12-01T04:34:08;32.30;;;14.97;;
6101;SDS011;3081;50.584;7.032;2022-12-01T04:36:54;31.13;;;14.80;;
6101;SDS011;3081;50.584;7.032;2022-12-01T04:39:32;30.67;;;12.93;;
6101;SDS011;3081;50.584;7.032;2022-12-01T04:41:59;24.50;;;11.70;;
6101;SDS011;3081;50.584;7.032;2022-12-01T04:44:26;28.83;;;13.83;;
6101;SDS011;3081;50.584;7.032;2022-12-01T04:46:53;34.43;;;14.57;;
6101;SDS011;3081;50.584;7.032;2022-12-01T04:49:20;32.90;;;13.90;;
6101;SDS011;3081;50.584;7.032;2022-12-01T04:51:49;31.23;;;13.70;;
6101;SDS011;3081;50.584;7.032;2022-12-01T04:54:16;31.23;;;13.37;;
6101;SDS011;3081;50.584;7.032;2022-12-01T04:56:43;31.43;;;12.83;;
6101;SDS011;3081;50.584;7.032;2022-12-01T04:59:10;36.40;;;14.20;;
6101;SDS011;3081;50.584;7.032;2022-12-01T05:01:37;32.80;;;14.23;;
6101;SDS011;3081;50.584;7.032;2022-12-01T05:04:04;33.83;;;15.30;;
6101;SDS011;3081;50.584;7.032;2022-12-01T05:06:32;32.23;;;13.27;;
6101;SDS011;3081;50.584;7.032;2022-12-01T05:09:00;31.83;;;14.40;;
6101;SDS011;3081;50.584;7.032;2022-12-01T05:11:27;31.57;;;15.00;;
6101;SDS011;3081;50.584;7.032;2022-12-01T05:13:56;39.87;;;16.43;;
6101;SDS011;3081;50.584;7.032;2022-12-01T05:16:23;35.30;;;14.87;;
6101;SDS011;3081;50.584;7.032;2022-12-01T05:18:52;35.53;;;15.83;;
6101;SDS011;3081;50.584;7.032;2022-12-01T05:21:41;34.97;;;15.43;;
6101;SDS011;3081;50.584;7.032;2022-12-01T05:24:38;37.30;;;15.60;;
6101;SDS011;3081;50.584;7.032;2022-12-01T05:27:05;29.57;;;13.73;;
6101;SDS011;3081;50.584;7.032;2022-12-01T05:29:32;34.97;;;15.10;;
6101;SDS011;3081;50.584;7.032;2022-12-01T05:31:59;34.80;;;15.40;;
6101;SDS011;3081;50.584;7.032;2022-12-01T05:34:27;35.27;;;14.43;;
6101;SDS011;3081;50.584;7.032;2022-12-01T05:36:54;40.37;;;15.30;;
6101;SDS011;3081;50.584;7.032;2022-12-01T05:39:21;38.20;;;15.40;;
6101;SDS011;3081;50.584;7.032;2022-12-01T05:41:49;39.20;;;15.20;;
6101;SDS011;3081;50.584;7.032;2022-12-01T05:44:19;39.17;;;14.63;;
6101;SDS011;3081;50.584;7.032;2022-12-01T05:46:48;31.17;;;13.97;;
6101;SDS011;3081;50.584;7.032;2022-12-01T05:49:15;38.13;;;15.13;;
6101;SDS011;3081;50.584;7.032;2022-12-01T05:51:42;32.40;;;15.03;;
6101;SDS011;3081;50.584;7.032;2022-12-01T05:54:09;38.50;;;15.33;;
6101;SDS011;3081;50.584;7.032;2022-12-01T05:56:36;35.90;;;15.20;;
6101;SDS011;3081;50.584;7.032;2022-12-01T05:59:04;34.87;;;14.50;;
6101;SDS011;3081;50.584;7.032;2022-12-01T06:01:31;38.40;;;15.13;;
6101;SDS011;3081;50.584;7.032;2022-12-01T06:03:58;44.40;;;18.90;;
6101;SDS011;3081;50.584;7.032;2022-12-01T06:06:25;40.10;;;14.17;;
6101;SDS011;3081;50.584;7.032;2022-12-01T06:08:52;36.73;;;15.00;;
6101;SDS011;3081;50.584;7.032;2022-12-01T06:11:20;34.83;;;15.50;;
6101;SDS011;3081;50.584;7.032;2022-12-01T06:13:47;36.17;;;17.20;;
6101;SDS011;3081;50.584;7.032;2022-12-01T06:16:15;38.30;;;16.27;;
6101;SDS011;3081;50.584;7.032;2022-12-01T06:18:42;42.10;;;16.10;;
6101;SDS011;3081;50.584;7.032;2022-12-01T06:21:09;39.90;;;15.90;;
6101;SDS011;3081;50.584;7.032;2022-12-01T06:23:36;40.83;;;16.70;;
6101;SDS011;3081;50.584;7.032;2022-12-01T06:26:03;39.93;;;16.90;;
6101;SDS011;3081;50.584;7.032;2022-12-01T06:28:30;37.70;;;15.47;;
6101;SDS011;3081;50.584;7.032;2022-12-01T06:30:57;39.23;;;15.80;;
6101;SDS011;3081;50.584;7.032;2022-12-01T06:33:25;43.57;;;15.57;;
6101;SDS011;3081;50.584;7.032;2022-12-01T06:35:56;44.20;;;17.60;;
6101;SDS011;3081;50.584;7.032;2022-12-01T06:38:23;43.60;;;17.70;;
6101;SDS011;3081;50.584;7.032;2022-12-01T06:40:50;37.27;;;14.73;;
6101;SDS011;3081;50.584;7.032;2022-12-01T06:43:17;41.43;;;15.80;;
6101;SDS011;3081;50.584;7.032;2022-12-01T06:45:44;48.20;;;17.10;;
6101;SDS011;3081;50.584;7.032;2022-12-01T06:48:10;44.70;;;16.73;;
6101;SDS011;3081;50.584;7.032;2022-12-01T06:50:39;48.10;;;18.20;;
6101;SDS011;3081;50.584;7.032;2022-12-01T06:53:06;41.50;;;15.97;;
6101;SDS011;3081;50.584;7.032;2022-12-01T06:55:34;44.20;;;15.43;;
6101;SDS011;3081;50.584;7.032;2022-12-01T06:58:01;49.40;;;17.67;;
6101;SDS011;3081;50.584;7.032;2022-12-01T07:00:29;46.50;;;16.40;;
6101;SDS011;3081;50.584;7.032;2022-12-01T07:02:56;47.50;;;18.90;;
6101;SDS011;3081;50.584;7.032;2022-12-01T07:05:23;54.83;;;18.93;;
6101;SDS011;3081;50.584;7.032;2022-12-01T07:07:52;52.50;;;19.60;;
6101;SDS011;3081;50.584;7.032;2022-12-01T07:10:19;47.13;;;20.07;;
6101;SDS011;3081;50.584;7.032;2022-12-01T07:12:46;59.30;;;19.10;;
6101;SDS011;3081;50.584;7.032;2022-12-01T07:15:13;58.37;;;19.80;;
6101;SDS011;3081;50.584;7.032;2022-12-01T07:17:40;52.53;;;18.70;;
6101;SDS011;3081;50.584;7.032;2022-12-01T07:20:07;49.37;;;17.83;;
6101;SDS011;3081;50.584;7.032;2022-12-01T07:22:35;53.60;;;20.17;;
6101;SDS011;3081;50.584;7.032;2022-12-01T07:25:04;48.83;;;18.50;;
6101;SDS011;3081;50.584;7.032;2022-12-01T07:27:32;55.50;;;19.97;;
6101;SDS011;3081;50.584;7.032;2022-12-01T07:29:59;48.40;;;18.73;;
6101;SDS011;3081;50.584;7.032;2022-12-01T07:32:26;55.37;;;21.97;;
6101;SDS011;3081;50.584;7.032;2022-12-01T07:34:52;57.47;;;20.70;;
6101;SDS011;3081;50.584;7.032;2022-12-01T07:37:19;64.87;;;20.60;;
6101;SDS011;3081;50.584;7.032;2022-12-01T07:39:46;47.73;;;18.80;;
6101;SDS011;3081;50.584;7.032;2022-12-01T07:42:14;65.37;;;19.97;;
6101;SDS011;3081;50.584;7.032;2022-12-01T07:44:41;47.87;;;17.70;;
6101;SDS011;3081;50.584;7.032;2022-12-01T07:47:08;50.40;;;19.70;;
6101;SDS011;3081;50.584;7.032;2022-12-01T07:49:35;56.63;;;19.90;;
6101;SDS011;3081;50.584;7.032;2022-12-01T07:52:03;43.27;;;16.90;;
6101;SDS011;3081;50.584;7.032;2022-12-01T07:54:30;42.47;;;17.13;;
6101;SDS011;3081;50.584;7.032;2022-12-01T07:56:57;49.20;;;18.00;;
6101;SDS011;3081;50.584;7.032;2022-12-01T07:59:25;67.30;;;21.67;;
6101;SDS011;3081;50.584;7.032;2022-12-01T08:01:52;53.73;;;19.70;;
6101;SDS011;3081;50.584;7.032;2022-12-01T08:04:19;55.57;;;20.60;;
6101;SDS011;3081;50.584;7.032;2022-12-01T08:06:45;53.57;;;19.33;;
6101;SDS011;3081;50.584;7.032;2022-12-01T08:09:12;46.73;;;18.73;;
6101;SDS011;3081;50.584;7.032;2022-12-01T08:11:39;41.77;;;17.30;;
6101;SDS011;3081;50.584;7.032;2022-12-01T08:14:06;54.10;;;20.47;;
6101;SDS011;3081;50.584;7.032;2022-12-01T08:16:34;51.23;;;19.80;;
6101;SDS011;3081;50.584;7.032;2022-12-01T08:19:01;49.77;;;19.33;;
6101;SDS011;3081;50.584;7.032;2022-12-01T08:21:28;44.13;;;16.60;;
6101;SDS011;3081;50.584;7.032;2022-12-01T08:23:55;47.20;;;17.10;;
6101;SDS011;3081;50.584;7.032;2022-12-01T08:26:23;47.73;;;19.50;;
6101;SDS011;3081;50.584;7.032;2022-12-01T08:28:51;42.07;;;18.37;;
6101;SDS011;3081;50.584;7.032;2022-12-01T08:31:19;45.47;;;17.50;;
6101;SDS011;3081;50.584;7.032;2022-12-01T08:33:48;44.03;;;16.37;;
6101;SDS011;3081;50.584;7.032;2022-12-01T08:36:16;36.37;;;16.20;;
6101;SDS011;3081;50.584;7.032;2022-12-01T08:38:44;49.27;;;18.07;;
6101;SDS011;3081;50.584;7.032;2022-12-01T08:41:13;38.57;;;17.33;;
6101;SDS011;3081;50.584;7.032;2022-12-01T08:43:40;45.77;;;18.50;;
6101;SDS011;3081;50.584;7.032;2022-12-01T08:46:09;41.00;;;18.80;;
6101;SDS011;3081;50.584;7.032;2022-12-01T08:48:36;44.10;;;18.53;;
6101;SDS011;3081;50.584;7.032;2022-12-01T08:51:06;41.97;;;16.90;;
6101;SDS011;3081;50.584;7.032;2022-12-01T08:53:34;44.23;;;18.27;;
6101;SDS011;3081;50.584;7.032;2022-12-01T08:56:04;43.40;;;17.60;;
6101;SDS011;3081;50.584;7.032;2022-12-01T08:58:32;44.93;;;16.67;;
6101;SDS011;3081;50.584;7.032;2022-12-01T09:00:59;38.67;;;16.93;;
6101;SDS011;3081;50.584;7.032;2022-12-01T09:03:27;36.70;;;17.90;;
6101;SDS011;3081;50.584;7.032;2022-12-01T09:05:59;39.40;;;15.70;;
6101;SDS011;3081;50.584;7.032;2022-12-01T09:08:29;38.57;;;18.03;;
6101;SDS011;3081;50.584;7.032;2022-12-01T09:11:00;37.03;;;16.33;;
6101;SDS011;3081;50.584;7.032;2022-12-01T09:13:28;37.30;;;17.80;;
6101;SDS011;3081;50.584;7.032;2022-12-01T09:15:56;34.10;;;16.93;;
6101;SDS011;3081;50.584;7.032;2022-12-01T09:18:24;36.37;;;15.93;;
6101;SDS011;3081;50.584;7.032;2022-12-01T09:20:51;42.03;;;17.03;;
6101;SDS011;3081;50.584;7.032;2022-12-01T09:23:18;40.10;;;17.17;;
6101;SDS011;3081;50.584;7.032;2022-12-01T09:25:47;30.63;;;16.27;;
6101;SDS011;3081;50.584;7.032;2022-12-01T09:28:14;38.90;;;17.27;;
6101;SDS011;3081;50.584;7.032;2022-12-01T09:30:42;41.83;;;17.80;;
6101;SDS011;3081;50.584;7.032;2022-12-01T09:33:08;39.03;;;17.73;;
6101;SDS011;3081;50.584;7.032;2022-12-01T09:35:35;36.17;;;17.47;;
6101;SDS011;3081;50.584;7.032;2022-12-01T09:38:02;41.60;;;17.70;;
6101;SDS011;3081;50.584;7.032;2022-12-01T09:40:30;49.70;;;21.10;;
6101;SDS011;3081;50.584;7.032;2022-12-01T09:43:02;37.80;;;16.73;;
6101;SDS011;3081;50.584;7.032;2022-12-01T09:45:33;44.77;;;18.37;;
6101;SDS011;3081;50.584;7.032;2022-12-01T09:48:04;44.60;;;18.30;;
6101;SDS011;3081;50.584;7.032;2022-12-01T09:50:32;48.37;;;18.60;;
6101;SDS011;3081;50.584;7.032;2022-12-01T09:53:01;41.63;;;15.47;;
6101;SDS011;3081;50.584;7.032;2022-12-01T09:55:31;42.33;;;17.97;;
6101;SDS011;3081;50.584;7.032;2022-12-01T09:58:02;44.57;;;18.77;;
6101;SDS011;3081;50.584;7.032;2022-12-01T10:00:30;41.70;;;17.60;;
6101;SDS011;3081;50.584;7.032;2022-12-01T10:03:02;38.97;;;17.70;;
6101;SDS011;3081;50.584;7.032;2022-12-01T10:05:37;40.23;;;16.67;;
6101;SDS011;3081;50.584;7.032;2022-12-01T10:08:10;35.63;;;17.57;;
6101;SDS011;3081;50.584;7.032;2022-12-01T10:10:41;38.70;;;17.17;;
6101;SDS011;3081;50.584;7.032;2022-12-01T10:13:15;34.67;;;14.47;;
6101;SDS011;3081;50.584;7.032;2022-12-01T10:15:46;41.00;;;15.83;;
6101;SDS011;3081;50.584;7.032;2022-12-01T10:18:24;33.13;;;14.17;;
6101;SDS011;3081;50.584;7.032;2022-12-01T10:21:02;34.80;;;15.40;;
6101;SDS011;3081;50.584;7.032;2022-12-01T10:23:38;40.97;;;16.93;;
6101;SDS011;3081;50.584;7.032;2022-12-01T10:26:24;36.23;;;15.97;;
6101;SDS011;3081;50.584;7.032;2022-12-01T10:29:02;40.70;;;16.60;;
6101;SDS011;3081;50.584;7.032;2022-12-01T10:31:40;37.67;;;15.40;;
6101;SDS011;3081;50.584;7.032;2022-12-01T10:34:19;36.43;;;15.63;;
6101;SDS011;3081;50.584;7.032;2022-12-01T10:36:48;33.53;;;15.20;;
6101;SDS011;3081;50.584;7.032;2022-12-01T10:39:16;33.43;;;15.10;;
6101;SDS011;3081;50.584;7.032;2022-12-01T10:41:45;29.53;;;15.30;;
6101;SDS011;3081;50.584;7.032;2022-12-01T10:44:15;29.83;;;13.07;;
6101;SDS011;3081;50.584;7.032;2022-12-01T10:46:44;30.30;;;12.97;;
6101;SDS011;3081;50.584;7.032;2022-12-01T10:49:16;27.80;;;13.27;;
6101;SDS011;3081;50.584;7.032;2022-12-01T10:51:51;29.13;;;15.33;;
6101;SDS011;3081;50.584;7.032;2022-12-01T10:54:19;28.63;;;16.20;;
6101;SDS011;3081;50.584;7.032;2022-12-01T10:56:48;25.27;;;13.73;;
6101;SDS011;3081;50.584;7.032;2022-12-01T10:59:24;26.43;;;12.33;;
6101;SDS011;3081;50.584;7.032;2022-12-01T11:01:55;24.70;;;12.90;;
6101;SDS011;3081;50.584;7.032;2022-12-01T11:04:34;22.27;;;11.50;;
6101;SDS011;3081;50.584;7.032;2022-12-01T11:07:13;22.77;;;12.23;;
6101;SDS011;3081;50.584;7.032;2022-12-01T11:09:45;24.07;;;12.00;;
6101;SDS011;3081;50.584;7.032;2022-12-01T11:12:22;25.00;;;10.80;;
6101;SDS011;3081;50.584;7.032;2022-12-01T11:14:51;25.47;;;10.87;;
6101;SDS011;3081;50.584;7.032;2022-12-01T11:17:30;21.10;;;11.00;;
6101;SDS011;3081;50.584;7.032;2022-12-01T11:19:59;19.87;;;10.50;;
6101;SDS011;3081;50.584;7.032;2022-12-01T11:22:51;20.80;;;11.27;;
6101;SDS011;3081;50.584;7.032;2022-12-01T11:25:19;20.17;;;10.77;;
6101;SDS011;3081;50.584;7.032;2022-12-01T11:27:48;20.23;;;10.00;;
6101;SDS011;3081;50.584;7.032;2022-12-01T11:30:21;23.47;;;12.97;;
6101;SDS011;3081;50.584;7.032;2022-12-01T11:32:50;18.87;;;10.57;;
6101;SDS011;3081;50.584;7.032;2022-12-01T11:35:20;18.63;;;7.87;;
6101;SDS011;3081;50.584;7.032;2022-12-01T11:37:49;15.10;;;8.87;;
6101;SDS011;3081;50.584;7.032;2022-12-01T11:40:19;18.00;;;9.60;;
6101;SDS011;3081;50.584;7.032;2022-12-01T11:42:50;19.30;;;11.60;;
6101;SDS011;3081;50.584;7.032;2022-12-01T11:45:23;14.63;;;9.97;;
6101;SDS011;3081;50.584;7.032;2022-12-01T11:48:00;17.53;;;9.07;;
6101;SDS011;3081;50.584;7.032;2022-12-01T11:50:30;14.50;;;9.73;;
6101;SDS011;3081;50.584;7.032;2022-12-01T11:52:59;17.20;;;9.80;;
6101;SDS011;3081;50.584;7.032;2022-12-01T11:55:26;16.40;;;9.37;;
6101;SDS011;3081;50.584;7.032;2022-12-01T11:57:56;15.87;;;9.00;;
6101;SDS011;3081;50.584;7.032;2022-12-01T12:00:28;13.43;;;8.70;;
6101;SDS011;3081;50.584;7.032;2022-12-01T12:03:09;14.80;;;8.90;;
6101;SDS011;3081;50.584;7.032;2022-12-01T12:05:55;21.60;;;9.07;;
6101;SDS011;3081;50.584;7.032;2022-12-01T12:08:38;15.57;;;8.70;;
6101;SDS011;3081;50.584;7.032;2022-12-01T12:11:16;14.30;;;9.50;;
6101;SDS011;3081;50.584;7.032;2022-12-01T12:13:56;18.33;;;8.20;;
6101;SDS011;3081;50.584;7.032;2022-12-01T12:16:37;16.83;;;9.50;;
6101;SDS011;3081;50.584;7.032;2022-12-01T12:19:17;19.20;;;9.63;;
6101;SDS011;3081;50.584;7.032;2022-12-01T12:21:56;12.73;;;7.93;;
6101;SDS011;3081;50.584;7.032;2022-12-01T12:24:35;15.63;;;9.00;;
6101;SDS011;3081;50.584;7.032;2022-12-01T12:27:11;17.97;;;8.77;;
6101;SDS011;3081;50.584;7.032;2022-12-01T12:29:49;14.93;;;7.40;;
6101;SDS011;3081;50.584;7.032;2022-12-01T12:32:31;13.53;;;8.03;;
6101;SDS011;3081;50.584;7.032;2022-12-01T12:35:07;12.47;;;7.97;;
6101;SDS011;3081;50.584;7.032;2022-12-01T12:37:49;16.90;;;8.60;;
6101;SDS011;3081;50.584;7.032;2022-12-01T12:40:29;11.57;;;7.50;;
6101;SDS011;3081;50.584;7.032;2022-12-01T12:43:07;13.00;;;8.40;;
6101;SDS011;3081;50.584;7.032;2022-12-01T12:45:51;22.57;;;12.70;;
6101;SDS011;3081;50.584;7.032;2022-12-01T12:48:30;15.37;;;8.50;;
6101;SDS011;3081;50.584;7.032;2022-12-01T12:51:20;15.10;;;8.10;;
6101;SDS011;3081;50.584;7.032;2022-12-01T12:53:53;12.23;;;7.90;;
6101;SDS011;3081;50.584;7.032;2022-12-01T12:56:25;12.27;;;7.43;;
6101;SDS011;3081;50.584;7.032;2022-12-01T12:58:56;13.80;;;7.70;;
6101;SDS011;3081;50.584;7.032;2022-12-01T13:01:27;16.20;;;8.57;;
6101;SDS011;3081;50.584;7.032;2022-12-01T13:04:02;14.60;;;8.83;;
6101;SDS011;3081;50.584;7.032;2022-12-01T13:06:33;16.20;;;9.50;;
6101;SDS011;3081;50.584;7.032;2022-12-01T13:09:06;14.70;;;9.40;;
6101;SDS011;3081;50.584;7.032;2022-12-01T13:11:37;17.17;;;10.75;;
6101;SDS011;3081;50.584;7.032;2022-12-01T13:14:14;18.10;;;9.73;;
6101;SDS011;3081;50.584;7.032;2022-12-01T13:16:48;16.13;;;8.90;;
6101;SDS011;3081;50.584;7.032;2022-12-01T13:19:20;14.70;;;8.50;;
6101;SDS011;3081;50.584;7.032;2022-12-01T13:21:51;19.13;;;9.23;;
6101;SDS011;3081;50.584;7.032;2022-12-01T13:24:20;19.40;;;8.90;;
6101;SDS011;3081;50.584;7.032;2022-12-01T13:26:53;17.70;;;9.33;;
6101;SDS011;3081;50.584;7.032;2022-12-01T13:29:24;22.70;;;12.43;;
6101;SDS011;3081;50.584;7.032;2022-12-01T13:31:52;20.03;;;9.67;;
6101;SDS011;3081;50.584;7.032;2022-12-01T13:34:23;18.93;;;9.93;;
6101;SDS011;3081;50.584;7.032;2022-12-01T13:36:53;19.33;;;9.33;;
6101;SDS011;3081;50.584;7.032;2022-12-01T13:39:22;16.57;;;9.53;;
6101;SDS011;3081;50.584;7.032;2022-12-01T13:41:57;21.77;;;11.23;;
6101;SDS011;3081;50.584;7.032;2022-12-01T13:44:27;16.33;;;9.70;;
6101;SDS011;3081;50.584;7.032;2022-12-01T13:46:58;20.80;;;9.97;;
6101;SDS011;3081;50.584;7.032;2022-12-01T13:49:37;22.83;;;11.97;;
6101;SDS011;3081;50.584;7.032;2022-12-01T13:52:16;20.90;;;11.57;;
6101;SDS011;3081;50.584;7.032;2022-12-01T13:54:59;23.53;;;10.53;;
6101;SDS011;3081;50.584;7.032;2022-12-01T13:57:48;24.50;;;10.90;;
6101;SDS011;3081;50.584;7.032;2022-12-01T14:00:38;21.90;;;10.20;;
6101;SDS011;3081;50.584;7.032;2022-12-01T14:06:09;19.27;;;10.80;;
6101;SDS011;3081;50.584;7.032;2022-12-01T14:08:50;26.47;;;12.00;;
6101;SDS011;3081;50.584;7.032;2022-12-01T14:11:20;27.30;;;11.60;;
6101;SDS011;3081;50.584;7.032;2022-12-01T14:13:50;21.20;;;11.00;;
6101;SDS011;3081;50.584;7.032;2022-12-01T14:16:19;23.27;;;11.53;;
6101;SDS011;3081;50.584;7.032;2022-12-01T14:18:50;22.80;;;10.90;;
6101;SDS011;3081;50.584;7.032;2022-12-01T14:21:41;22.63;;;9.93;;
6101;SDS011;3081;50.584;7.032;2022-12-01T14:24:19;23.43;;;12.70;;
6101;SDS011;3081;50.584;7.032;2022-12-01T14:26:48;24.00;;;11.33;;
6101;SDS011;3081;50.584;7.032;2022-12-01T14:29:24;23.83;;;12.00;;
6101;SDS011;3081;50.584;7.032;2022-12-01T14:32:04;25.27;;;12.80;;
6101;SDS011;3081;50.584;7.032;2022-12-01T14:34:48;27.70;;;11.13;;
6101;SDS011;3081;50.584;7.032;2022-12-01T14:40:21;25.60;;;13.17;;
6101;SDS011;3081;50.584;7.032;2022-12-01T14:42:54;28.63;;;13.27;;
6101;SDS011;3081;50.584;7.032;2022-12-01T14:45:52;23.57;;;12.30;;
6101;SDS011;3081;50.584;7.032;2022-12-01T14:48:24;25.60;;;12.37;;
6101;SDS011;3081;50.584;7.032;2022-12-01T14:51:06;29.97;;;12.60;;
6101;SDS011;3081;50.584;7.032;2022-12-01T14:53:39;22.60;;;11.50;;
6101;SDS011;3081;50.584;7.032;2022-12-01T14:56:09;24.40;;;12.60;;
6101;SDS011;3081;50.584;7.032;2022-12-01T14:58:38;23.80;;;13.07;;
6101;SDS011;3081;50.584;7.032;2022-12-01T15:01:16;26.27;;;11.60;;
6101;SDS011;3081;50.584;7.032;2022-12-01T15:03:45;23.20;;;12.50;;
6101;SDS011;3081;50.584;7.032;2022-12-01T15:06:15;34.43;;;15.40;;
6101;SDS011;3081;50.584;7.032;2022-12-01T15:08:44;27.97;;;13.30;;
6101;SDS011;3081;50.584;7.032;2022-12-01T15:11:19;30.67;;;13.50;;
6101;SDS011;3081;50.584;7.032;2022-12-01T15:13:47;29.00;;;14.80;;
6101;SDS011;3081;50.584;7.032;2022-12-01T15:16:19;30.90;;;14.97;;
6101;SDS011;3081;50.584;7.032;2022-12-01T15:18:47;35.43;;;14.80;;
6101;SDS011;3081;50.584;7.032;2022-12-01T15:21:15;36.13;;;15.50;;
6101;SDS011;3081;50.584;7.032;2022-12-01T15:23:52;30.30;;;14.77;;
6101;SDS011;3081;50.584;7.032;2022-12-01T15:26:21;29.20;;;14.13;;
6101;SDS011;3081;50.584;7.032;2022-12-01T15:28:49;32.00;;;12.40;;
6101;SDS011;3081;50.584;7.032;2022-12-01T15:31:29;29.10;;;13.13;;